Share

Kos, Greece

Ippokratis (LGKO) Elev 423 ft | 36.80 °N, 27.09 °E | Change Station

Current weather conditions updated 6 minutes ago

Clear
Clear
66 °F
Feels Like 66 °F
N
2
Wind Variable Wind from Variable
Sunrise 6:30 AM
Sunset 7:51 PM
Moon Waning Gibbous

Today is forecast to be nearly the same temperature as yesterday.

Pressure 30.01 in
Visibility -9999.0 miles
Clouds
Dew Point 52 °F
Humidity 60%
Rainfall 0.00 in
Snow Depth Not available.
UV Not available.
Pollen Not available.
Air Quality Not available.
Flu Activity Not available.
METAR LGKO 210950Z VRB02KT CAVOK 19/11 Q1016

More Conditions Fewer Conditions

Pressure 30.01 in
Visibility -9999.0 miles
Clouds
Dew Point 52 °F
Humidity 60%
Rainfall 0.00 in
Snow Depth Not available.
UV Not available.
Pollen Not available.
Air Quality Not available.
Flu Activity Not available.
METAR LGKO 210950Z VRB02KT CAVOK 19/11 Q1016

More Conditions Fewer Conditions

10-Day Weather Forecast

Almanac

Astronomy

Apr. 21, 2014 Rise Set
Actual Time 6:30 AM EEST 7:51 PM EEST
Civil Twilight 6:03 AM EEST 8:18 PM EEST
Nautical Twilight 5:30 AM EEST 8:50 PM EEST
Astronomical Twilight 4:57 AM EEST 9:24 PM EEST
Moon 1:03 AM EEST 11:37 AM EEST
Length of Visible Light 14h 15m
Length of Day
13h 21m
Tomorrow will be 2m 10s longer.
Waning Gibbous, 60% of the Moon is Illuminated
Today
Waning Gibbous
Apr 22
Last Quarter
Apr 29
New
May 6
First Quarter
May 14
Full

Yesterday's Extremes

Country Highs Country Lows

Community

  • Snowy Robin
    Snowy Robin
  • Sun Pillar and Geese
    Sun Pillar and Geese
  • Showers on the Way
    Showers on the Way
  • Easter Morning Fog
    Easter Morning Fog
  • Easter Dance
    Easter Dance

WunderPhotos

Upload Photos

1,703,579 photos uploaded!

WunderBlogs® & News

Nearby

Snow Depth

Not available.

Coastal Water Temperatures

Place Temperature
No Stations Reporting

Earthquake Activity

City Distance Mag. Time & Date
No recent earthquake activity has been reported nearby.
Minimum magnitude displayed is 2.5.

Nearby Weather Stations

Station Location Temp. Heat Index Dew Point Humidity Wind Precip. Elev Updated Type
Culture Vulture's House, Gumusluk 69.6 °F - 56 °F 63% SW  at  6.0 mph 0.00 in / hr 52 ft 12:56 PM EEST Rapid Fire
Yalikavak, Yalikavak 72.7 °F 77 °F 47 °F 40% North  at  0.0 mph 0.00 in / hr 351 ft 12:45 PM EEST Normal

Show More Stations Show Fewer Stations

What do you think?

We're not finished. Please let us know what you like, what you don't like, and what you are still missing.